sensor_id;sensor_type;location;lat;lon;timestamp;P1;durP1;ratioP1;P2;durP2;ratioP2
317;SDS011;146;53.448;10.228;2023-03-14T00:02:14;2.87;;;2.40;;
317;SDS011;146;53.448;10.228;2023-03-14T00:04:46;3.73;;;2.40;;
317;SDS011;146;53.448;10.228;2023-03-14T00:07:14;4.10;;;2.50;;
317;SDS011;146;53.448;10.228;2023-03-14T00:09:47;5.90;;;2.93;;
317;SDS011;146;53.448;10.228;2023-03-14T00:12:14;3.77;;;2.30;;
317;SDS011;146;53.448;10.228;2023-03-14T00:14:43;4.50;;;2.37;;
317;SDS011;146;53.448;10.228;2023-03-14T00:17:10;3.37;;;2.80;;
317;SDS011;146;53.448;10.228;2023-03-14T00:19:40;3.30;;;2.50;;
317;SDS011;146;53.448;10.228;2023-03-14T00:22:23;3.00;;;2.53;;
317;SDS011;146;53.448;10.228;2023-03-14T00:24:51;4.47;;;3.30;;
317;SDS011;146;53.448;10.228;2023-03-14T00:27:21;3.00;;;2.67;;
317;SDS011;146;53.448;10.228;2023-03-14T00:30:13;3.77;;;2.70;;
317;SDS011;146;53.448;10.228;2023-03-14T00:32:40;2.77;;;2.40;;
317;SDS011;146;53.448;10.228;2023-03-14T00:35:13;3.10;;;2.40;;
317;SDS011;146;53.448;10.228;2023-03-14T00:37:43;3.67;;;2.47;;
317;SDS011;146;53.448;10.228;2023-03-14T00:40:11;3.63;;;2.73;;
317;SDS011;146;53.448;10.228;2023-03-14T00:42:38;2.67;;;2.47;;
317;SDS011;146;53.448;10.228;2023-03-14T00:45:15;3.70;;;3.00;;
317;SDS011;146;53.448;10.228;2023-03-14T00:47:51;3.80;;;2.97;;
317;SDS011;146;53.448;10.228;2023-03-14T00:50:27;5.50;;;3.30;;
317;SDS011;146;53.448;10.228;2023-03-14T00:53:03;3.67;;;2.83;;
317;SDS011;146;53.448;10.228;2023-03-14T00:55:37;3.60;;;2.80;;
317;SDS011;146;53.448;10.228;2023-03-14T00:58:14;3.40;;;3.10;;
317;SDS011;146;53.448;10.228;2023-03-14T01:00:42;4.90;;;2.30;;
317;SDS011;146;53.448;10.228;2023-03-14T01:03:15;4.60;;;2.27;;
317;SDS011;146;53.448;10.228;2023-03-14T01:05:42;3.57;;;2.80;;
317;SDS011;146;53.448;10.228;2023-03-14T01:08:12;2.70;;;2.50;;
317;SDS011;146;53.448;10.228;2023-03-14T01:10:40;6.43;;;2.80;;
317;SDS011;146;53.448;10.228;2023-03-14T01:13:12;4.90;;;3.80;;
317;SDS011;146;53.448;10.228;2023-03-14T01:15:40;4.93;;;2.73;;
317;SDS011;146;53.448;10.228;2023-03-14T01:18:13;3.47;;;2.53;;
317;SDS011;146;53.448;10.228;2023-03-14T01:20:45;4.07;;;3.00;;
317;SDS011;146;53.448;10.228;2023-03-14T01:23:12;5.87;;;3.27;;
317;SDS011;146;53.448;10.228;2023-03-14T01:25:43;3.27;;;2.87;;
317;SDS011;146;53.448;10.228;2023-03-14T01:28:13;3.77;;;3.13;;
317;SDS011;146;53.448;10.228;2023-03-14T01:30:47;3.87;;;3.10;;
317;SDS011;146;53.448;10.228;2023-03-14T01:33:14;4.47;;;2.33;;
317;SDS011;146;53.448;10.228;2023-03-14T01:35:40;3.37;;;3.07;;
317;SDS011;146;53.448;10.228;2023-03-14T01:38:13;7.20;;;4.00;;
317;SDS011;146;53.448;10.228;2023-03-14T01:40:47;5.40;;;3.33;;
317;SDS011;146;53.448;10.228;2023-03-14T01:43:20;4.57;;;3.60;;
317;SDS011;146;53.448;10.228;2023-03-14T01:48:56;3.43;;;3.13;;
317;SDS011;146;53.448;10.228;2023-03-14T01:51:36;5.53;;;3.47;;
317;SDS011;146;53.448;10.228;2023-03-14T01:54:14;3.37;;;3.07;;
317;SDS011;146;53.448;10.228;2023-03-14T01:56:52;4.80;;;3.20;;
317;SDS011;146;53.448;10.228;2023-03-14T01:59:27;5.57;;;3.23;;
317;SDS011;146;53.448;10.228;2023-03-14T02:01:57;5.60;;;3.20;;
317;SDS011;146;53.448;10.228;2023-03-14T02:04:28;6.37;;;3.40;;
317;SDS011;146;53.448;10.228;2023-03-14T02:07:00;7.90;;;3.00;;
317;SDS011;146;53.448;10.228;2023-03-14T02:09:30;5.87;;;2.87;;
317;SDS011;146;53.448;10.228;2023-03-14T02:12:02;3.73;;;2.83;;
317;SDS011;146;53.448;10.228;2023-03-14T02:14:41;7.03;;;2.70;;
317;SDS011;146;53.448;10.228;2023-03-14T02:17:22;4.03;;;2.40;;
317;SDS011;146;53.448;10.228;2023-03-14T02:23:01;4.03;;;3.27;;
317;SDS011;146;53.448;10.228;2023-03-14T02:25:31;8.10;;;2.93;;
317;SDS011;146;53.448;10.228;2023-03-14T02:28:12;5.20;;;3.43;;
317;SDS011;146;53.448;10.228;2023-03-14T02:30:40;7.77;;;3.20;;
317;SDS011;146;53.448;10.228;2023-03-14T02:33:08;3.73;;;2.80;;
317;SDS011;146;53.448;10.228;2023-03-14T02:35:40;4.93;;;2.60;;
317;SDS011;146;53.448;10.228;2023-03-14T02:38:15;3.80;;;2.87;;
317;SDS011;146;53.448;10.228;2023-03-14T02:40:46;5.50;;;3.40;;
317;SDS011;146;53.448;10.228;2023-03-14T02:43:14;4.83;;;2.90;;
317;SDS011;146;53.448;10.228;2023-03-14T02:45:42;2.63;;;2.43;;
317;SDS011;146;53.448;10.228;2023-03-14T02:48:14;5.20;;;3.40;;
317;SDS011;146;53.448;10.228;2023-03-14T02:50:54;6.60;;;3.43;;
317;SDS011;146;53.448;10.228;2023-03-14T02:53:31;6.63;;;3.20;;
317;SDS011;146;53.448;10.228;2023-03-14T02:56:02;5.07;;;2.60;;
317;SDS011;146;53.448;10.228;2023-03-14T02:58:32;4.30;;;3.07;;
317;SDS011;146;53.448;10.228;2023-03-14T03:00:58;5.27;;;2.73;;
317;SDS011;146;53.448;10.228;2023-03-14T03:03:28;4.43;;;2.40;;
317;SDS011;146;53.448;10.228;2023-03-14T03:05:55;3.63;;;3.07;;
317;SDS011;146;53.448;10.228;2023-03-14T03:08:25;4.73;;;3.00;;
317;SDS011;146;53.448;10.228;2023-03-14T03:10:53;2.63;;;2.43;;
317;SDS011;146;53.448;10.228;2023-03-14T03:13:22;4.70;;;3.13;;
317;SDS011;146;53.448;10.228;2023-03-14T03:16:02;4.57;;;2.60;;
317;SDS011;146;53.448;10.228;2023-03-14T03:18:32;3.50;;;2.50;;
317;SDS011;146;53.448;10.228;2023-03-14T03:20:59;3.00;;;2.80;;
317;SDS011;146;53.448;10.228;2023-03-14T03:23:30;2.47;;;2.10;;
317;SDS011;146;53.448;10.228;2023-03-14T03:26:04;2.70;;;2.20;;
317;SDS011;146;53.448;10.228;2023-03-14T03:28:47;2.50;;;2.30;;
317;SDS011;146;53.448;10.228;2023-03-14T03:31:18;5.40;;;2.10;;
317;SDS011;146;53.448;10.228;2023-03-14T03:33:48;3.40;;;2.83;;
317;SDS011;146;53.448;10.228;2023-03-14T03:36:22;4.20;;;3.20;;
317;SDS011;146;53.448;10.228;2023-03-14T03:38:49;4.40;;;2.93;;
317;SDS011;146;53.448;10.228;2023-03-14T03:41:19;5.97;;;2.83;;
317;SDS011;146;53.448;10.228;2023-03-14T03:43:46;2.60;;;2.40;;
317;SDS011;146;53.448;10.228;2023-03-14T03:46:16;2.97;;;2.77;;
317;SDS011;146;53.448;10.228;2023-03-14T03:48:44;3.53;;;2.03;;
317;SDS011;146;53.448;10.228;2023-03-14T03:51:14;6.03;;;3.90;;
317;SDS011;146;53.448;10.228;2023-03-14T03:53:42;3.60;;;2.47;;
317;SDS011;146;53.448;10.228;2023-03-14T03:56:14;2.40;;;2.27;;
317;SDS011;146;53.448;10.228;2023-03-14T03:58:41;2.63;;;2.43;;
317;SDS011;146;53.448;10.228;2023-03-14T04:01:11;3.20;;;2.63;;
317;SDS011;146;53.448;10.228;2023-03-14T04:03:44;2.67;;;2.43;;
317;SDS011;146;53.448;10.228;2023-03-14T04:06:12;4.40;;;2.67;;
317;SDS011;146;53.448;10.228;2023-03-14T04:08:42;5.87;;;3.00;;
317;SDS011;146;53.448;10.228;2023-03-14T04:11:12;5.27;;;2.87;;
317;SDS011;146;53.448;10.228;2023-03-14T04:13:41;3.13;;;2.93;;
317;SDS011;146;53.448;10.228;2023-03-14T04:16:16;4.27;;;2.93;;
317;SDS011;146;53.448;10.228;2023-03-14T04:18:45;10.37;;;3.83;;
317;SDS011;146;53.448;10.228;2023-03-14T04:21:12;7.70;;;4.23;;
317;SDS011;146;53.448;10.228;2023-03-14T04:23:42;14.97;;;3.30;;
317;SDS011;146;53.448;10.228;2023-03-14T04:26:12;6.70;;;3.30;;
317;SDS011;146;53.448;10.228;2023-03-14T04:28:45;3.80;;;2.70;;
317;SDS011;146;53.448;10.228;2023-03-14T04:31:12;4.53;;;2.90;;
317;SDS011;146;53.448;10.228;2023-03-14T04:33:40;4.53;;;3.10;;
317;SDS011;146;53.448;10.228;2023-03-14T04:36:17;4.17;;;2.53;;
317;SDS011;146;53.448;10.228;2023-03-14T04:38:44;5.70;;;2.87;;
317;SDS011;146;53.448;10.228;2023-03-14T04:41:20;6.00;;;3.00;;
317;SDS011;146;53.448;10.228;2023-03-14T04:43:53;4.00;;;3.53;;
317;SDS011;146;53.448;10.228;2023-03-14T04:46:27;7.10;;;3.10;;
317;SDS011;146;53.448;10.228;2023-03-14T04:49:00;3.27;;;2.97;;
317;SDS011;146;53.448;10.228;2023-03-14T04:51:37;3.57;;;3.37;;
317;SDS011;146;53.448;10.228;2023-03-14T04:54:04;3.70;;;3.00;;
317;SDS011;146;53.448;10.228;2023-03-14T04:56:34;2.57;;;2.33;;
317;SDS011;146;53.448;10.228;2023-03-14T04:59:02;3.90;;;3.60;;
317;SDS011;146;53.448;10.228;2023-03-14T05:01:31;4.40;;;2.87;;
317;SDS011;146;53.448;10.228;2023-03-14T05:03:58;3.10;;;2.80;;
317;SDS011;146;53.448;10.228;2023-03-14T05:06:27;2.63;;;2.37;;
317;SDS011;146;53.448;10.228;2023-03-14T05:08:58;3.20;;;2.90;;
317;SDS011;146;53.448;10.228;2023-03-14T05:11:28;3.57;;;2.80;;
317;SDS011;146;53.448;10.228;2023-03-14T05:13:57;3.10;;;2.80;;
317;SDS011;146;53.448;10.228;2023-03-14T05:16:24;4.50;;;2.90;;
317;SDS011;146;53.448;10.228;2023-03-14T05:18:54;2.63;;;2.40;;
317;SDS011;146;53.448;10.228;2023-03-14T05:21:23;3.43;;;2.70;;
317;SDS011;146;53.448;10.228;2023-03-14T05:23:53;3.77;;;2.93;;
317;SDS011;146;53.448;10.228;2023-03-14T05:26:30;9.33;;;3.43;;
317;SDS011;146;53.448;10.228;2023-03-14T05:28:59;4.87;;;2.50;;
317;SDS011;146;53.448;10.228;2023-03-14T05:31:42;3.70;;;3.40;;
317;SDS011;146;53.448;10.228;2023-03-14T05:34:09;3.50;;;2.33;;
317;SDS011;146;53.448;10.228;2023-03-14T05:36:42;3.40;;;2.60;;
317;SDS011;146;53.448;10.228;2023-03-14T05:39:09;4.67;;;2.97;;
317;SDS011;146;53.448;10.228;2023-03-14T05:41:59;3.63;;;3.43;;
317;SDS011;146;53.448;10.228;2023-03-14T05:44:35;5.40;;;2.60;;
317;SDS011;146;53.448;10.228;2023-03-14T05:47:04;4.20;;;3.07;;
317;SDS011;146;53.448;10.228;2023-03-14T05:49:37;4.00;;;3.17;;
317;SDS011;146;53.448;10.228;2023-03-14T05:52:16;2.27;;;2.17;;
317;SDS011;146;53.448;10.228;2023-03-14T05:54:51;2.90;;;2.70;;
317;SDS011;146;53.448;10.228;2023-03-14T05:57:21;4.10;;;2.83;;
317;SDS011;146;53.448;10.228;2023-03-14T05:59:56;3.70;;;2.60;;
317;SDS011;146;53.448;10.228;2023-03-14T06:02:23;3.43;;;2.57;;
317;SDS011;146;53.448;10.228;2023-03-14T06:04:53;3.60;;;2.33;;
317;SDS011;146;53.448;10.228;2023-03-14T06:07:31;3.60;;;2.70;;
317;SDS011;146;53.448;10.228;2023-03-14T06:09:58;2.93;;;2.60;;
317;SDS011;146;53.448;10.228;2023-03-14T06:12:28;2.90;;;2.70;;
317;SDS011;146;53.448;10.228;2023-03-14T06:15:13;3.53;;;2.50;;
317;SDS011;146;53.448;10.228;2023-03-14T06:17:43;3.50;;;2.80;;
317;SDS011;146;53.448;10.228;2023-03-14T06:20:13;4.00;;;2.70;;
317;SDS011;146;53.448;10.228;2023-03-14T06:22:40;3.60;;;3.27;;
317;SDS011;146;53.448;10.228;2023-03-14T06:25:13;3.10;;;2.63;;
317;SDS011;146;53.448;10.228;2023-03-14T06:27:52;2.63;;;2.40;;
317;SDS011;146;53.448;10.228;2023-03-14T06:30:24;3.33;;;3.13;;
317;SDS011;146;53.448;10.228;2023-03-14T06:32:51;2.70;;;2.40;;
317;SDS011;146;53.448;10.228;2023-03-14T06:35:18;2.90;;;2.70;;
317;SDS011;146;53.448;10.228;2023-03-14T06:37:45;3.10;;;2.67;;
317;SDS011;146;53.448;10.228;2023-03-14T06:40:15;5.03;;;2.13;;
317;SDS011;146;53.448;10.228;2023-03-14T06:42:42;3.00;;;2.70;;
317;SDS011;146;53.448;10.228;2023-03-14T06:45:13;2.87;;;2.43;;
317;SDS011;146;53.448;10.228;2023-03-14T06:47:40;3.67;;;2.70;;
317;SDS011;146;53.448;10.228;2023-03-14T06:50:08;2.53;;;2.33;;
317;SDS011;146;53.448;10.228;2023-03-14T06:52:36;2.43;;;2.10;;
317;SDS011;146;53.448;10.228;2023-03-14T06:55:12;4.23;;;2.40;;
317;SDS011;146;53.448;10.228;2023-03-14T06:57:38;2.47;;;2.30;;
317;SDS011;146;53.448;10.228;2023-03-14T07:00:07;4.53;;;2.63;;
317;SDS011;146;53.448;10.228;2023-03-14T07:02:35;4.60;;;3.53;;
317;SDS011;146;53.448;10.228;2023-03-14T07:05:02;2.43;;;2.20;;
317;SDS011;146;53.448;10.228;2023-03-14T07:07:38;5.27;;;2.33;;
317;SDS011;146;53.448;10.228;2023-03-14T07:10:05;3.23;;;2.30;;
317;SDS011;146;53.448;10.228;2023-03-14T07:12:43;7.30;;;2.40;;
317;SDS011;146;53.448;10.228;2023-03-14T07:15:15;3.17;;;2.30;;
317;SDS011;146;53.448;10.228;2023-03-14T07:17:41;5.40;;;1.97;;
317;SDS011;146;53.448;10.228;2023-03-14T07:20:10;2.37;;;2.17;;
317;SDS011;146;53.448;10.228;2023-03-14T07:22:39;1.80;;;1.70;;
317;SDS011;146;53.448;10.228;2023-03-14T07:25:09;2.30;;;1.60;;
317;SDS011;146;53.448;10.228;2023-03-14T07:27:45;2.00;;;1.77;;
317;SDS011;146;53.448;10.228;2023-03-14T07:30:28;2.03;;;1.83;;
317;SDS011;146;53.448;10.228;2023-03-14T07:32:58;2.53;;;1.70;;
317;SDS011;146;53.448;10.228;2023-03-14T07:35:31;1.87;;;1.77;;
317;SDS011;146;53.448;10.228;2023-03-14T07:38:03;5.83;;;1.63;;
317;SDS011;146;53.448;10.228;2023-03-14T07:40:37;2.20;;;1.53;;
317;SDS011;146;53.448;10.228;2023-03-14T07:43:10;2.23;;;1.50;;
317;SDS011;146;53.448;10.228;2023-03-14T07:45:44;3.60;;;2.10;;
317;SDS011;146;53.448;10.228;2023-03-14T07:48:12;2.90;;;2.10;;
317;SDS011;146;53.448;10.228;2023-03-14T07:50:38;1.63;;;1.53;;
317;SDS011;146;53.448;10.228;2023-03-14T07:53:15;3.63;;;2.03;;
317;SDS011;146;53.448;10.228;2023-03-14T07:55:48;3.53;;;2.50;;
317;SDS011;146;53.448;10.228;2023-03-14T07:58:16;2.33;;;2.23;;
317;SDS011;146;53.448;10.228;2023-03-14T08:00:52;3.73;;;2.00;;
317;SDS011;146;53.448;10.228;2023-03-14T08:03:24;3.10;;;2.30;;
317;SDS011;146;53.448;10.228;2023-03-14T08:05:56;3.30;;;2.47;;
317;SDS011;146;53.448;10.228;2023-03-14T08:08:23;5.30;;;2.30;;
317;SDS011;146;53.448;10.228;2023-03-14T08:11:04;2.77;;;2.57;;
317;SDS011;146;53.448;10.228;2023-03-14T08:13:33;3.10;;;2.53;;
317;SDS011;146;53.448;10.228;2023-03-14T08:16:06;2.40;;;2.20;;
317;SDS011;146;53.448;10.228;2023-03-14T08:18:33;3.13;;;2.93;;
317;SDS011;146;53.448;10.228;2023-03-14T08:21:00;5.50;;;3.70;;
317;SDS011;146;53.448;10.228;2023-03-14T08:23:27;3.57;;;3.37;;
317;SDS011;146;53.448;10.228;2023-03-14T08:25:59;3.20;;;3.00;;
317;SDS011;146;53.448;10.228;2023-03-14T08:28:26;6.40;;;4.13;;
317;SDS011;146;53.448;10.228;2023-03-14T08:30:55;5.07;;;4.40;;
317;SDS011;146;53.448;10.228;2023-03-14T08:36:23;4.33;;;3.93;;
317;SDS011;146;53.448;10.228;2023-03-14T08:38:59;5.73;;;5.00;;
317;SDS011;146;53.448;10.228;2023-03-14T08:41:38;8.73;;;5.60;;
317;SDS011;146;53.448;10.228;2023-03-14T08:44:13;5.53;;;4.43;;
317;SDS011;146;53.448;10.228;2023-03-14T08:46:40;4.90;;;4.50;;
317;SDS011;146;53.448;10.228;2023-03-14T08:49:11;3.90;;;3.60;;
317;SDS011;146;53.448;10.228;2023-03-14T08:51:39;6.13;;;5.53;;
317;SDS011;146;53.448;10.228;2023-03-14T08:54:12;4.73;;;4.33;;
317;SDS011;146;53.448;10.228;2023-03-14T08:56:43;10.00;;;4.50;;
317;SDS011;146;53.448;10.228;2023-03-14T08:59:13;6.43;;;4.80;;
317;SDS011;146;53.448;10.228;2023-03-14T09:01:43;4.90;;;4.13;;
317;SDS011;146;53.448;10.228;2023-03-14T09:04:17;5.17;;;3.90;;
317;SDS011;146;53.448;10.228;2023-03-14T09:06:50;3.93;;;3.63;;
317;SDS011;146;53.448;10.228;2023-03-14T09:09:17;4.37;;;3.80;;
317;SDS011;146;53.448;10.228;2023-03-14T09:11:44;5.17;;;3.63;;
317;SDS011;146;53.448;10.228;2023-03-14T09:14:11;6.60;;;3.97;;
317;SDS011;146;53.448;10.228;2023-03-14T09:16:41;4.10;;;3.60;;
317;SDS011;146;53.448;10.228;2023-03-14T09:19:08;3.60;;;3.40;;
317;SDS011;146;53.448;10.228;2023-03-14T09:21:39;4.10;;;3.77;;
317;SDS011;146;53.448;10.228;2023-03-14T09:24:17;3.80;;;3.50;;
317;SDS011;146;53.448;10.228;2023-03-14T09:26:44;3.73;;;3.33;;
317;SDS011;146;53.448;10.228;2023-03-14T09:29:14;6.30;;;4.80;;
317;SDS011;146;53.448;10.228;2023-03-14T09:31:41;3.10;;;2.80;;
317;SDS011;146;53.448;10.228;2023-03-14T09:34:11;3.77;;;3.47;;
317;SDS011;146;53.448;10.228;2023-03-14T09:39:23;3.30;;;2.77;;
317;SDS011;146;53.448;10.228;2023-03-14T09:42:00;6.07;;;3.30;;
317;SDS011;146;53.448;10.228;2023-03-14T09:44:42;5.83;;;3.10;;
317;SDS011;146;53.448;10.228;2023-03-14T09:47:17;3.20;;;2.77;;
317;SDS011;146;53.448;10.228;2023-03-14T09:50:09;3.50;;;2.80;;
317;SDS011;146;53.448;10.228;2023-03-14T09:52:44;3.60;;;2.73;;
317;SDS011;146;53.448;10.228;2023-03-14T09:55:14;3.23;;;2.90;;
317;SDS011;146;53.448;10.228;2023-03-14T09:57:47;4.37;;;2.57;;
317;SDS011;146;53.448;10.228;2023-03-14T10:00:20;4.03;;;2.70;;
317;SDS011;146;53.448;10.228;2023-03-14T10:03:00;4.30;;;2.80;;
317;SDS011;146;53.448;10.228;2023-03-14T10:05:44;2.80;;;2.30;;
317;SDS011;146;53.448;10.228;2023-03-14T10:08:12;2.30;;;2.10;;
317;SDS011;146;53.448;10.228;2023-03-14T10:10:42;2.40;;;2.20;;
317;SDS011;146;53.448;10.228;2023-03-14T10:13:15;2.70;;;2.50;;
317;SDS011;146;53.448;10.228;2023-03-14T10:15:46;7.43;;;2.87;;
317;SDS011;146;53.448;10.228;2023-03-14T10:18:14;2.70;;;1.93;;
317;SDS011;146;53.448;10.228;2023-03-14T10:20:42;1.93;;;1.10;;
317;SDS011;146;53.448;10.228;2023-03-14T10:23:30;1.93;;;0.90;;
317;SDS011;146;53.448;10.228;2023-03-14T10:26:11;0.90;;;0.90;;
317;SDS011;146;53.448;10.228;2023-03-14T10:28:43;0.87;;;0.87;;
317;SDS011;146;53.448;10.228;2023-03-14T10:31:12;1.60;;;1.10;;
317;SDS011;146;53.448;10.228;2023-03-14T10:33:42;2.60;;;1.80;;
317;SDS011;146;53.448;10.228;2023-03-14T10:36:34;0.83;;;0.83;;
317;SDS011;146;53.448;10.228;2023-03-14T10:39:15;2.30;;;0.93;;
317;SDS011;146;53.448;10.228;2023-03-14T10:42:31;2.13;;;1.00;;
317;SDS011;146;53.448;10.228;2023-03-14T10:44:43;1.47;;;1.37;;
317;SDS011;146;53.448;10.228;2023-03-14T10:47:16;1.70;;;1.23;;
317;SDS011;146;53.448;10.228;2023-03-14T10:49:45;2.60;;;1.30;;
317;SDS011;146;53.448;10.228;2023-03-14T10:52:13;2.20;;;1.63;;
317;SDS011;146;53.448;10.228;2023-03-14T10:54:47;1.97;;;1.80;;
317;SDS011;146;53.448;10.228;2023-03-14T10:57:15;3.70;;;2.00;;
317;SDS011;146;53.448;10.228;2023-03-14T10:59:42;1.50;;;1.40;;
317;SDS011;146;53.448;10.228;2023-03-14T11:02:31;1.53;;;1.20;;
317;SDS011;146;53.448;10.228;2023-03-14T11:05:28;1.47;;;0.90;;
317;SDS011;146;53.448;10.228;2023-03-14T11:07:59;1.83;;;0.90;;
317;SDS011;146;53.448;10.228;2023-03-14T11:10:32;0.90;;;0.90;;
317;SDS011;146;53.448;10.228;2023-03-14T11:13:14;0.73;;;0.60;;
317;SDS011;146;53.448;10.228;2023-03-14T11:15:50;0.80;;;0.80;;
317;SDS011;146;53.448;10.228;2023-03-14T11:18:47;0.60;;;0.60;;
317;SDS011;146;53.448;10.228;2023-03-14T11:21:23;2.07;;;0.87;;
317;SDS011;146;53.448;10.228;2023-03-14T11:24:14;1.67;;;0.70;;
317;SDS011;146;53.448;10.228;2023-03-14T11:27:09;0.97;;;0.63;;
317;SDS011;146;53.448;10.228;2023-03-14T11:29:47;3.80;;;0.60;;
317;SDS011;146;53.448;10.228;2023-03-14T11:32:44;0.80;;;0.80;;
317;SDS011;146;53.448;10.228;2023-03-14T11:38:04;0.47;;;0.43;;
317;SDS011;146;53.448;10.228;2023-03-14T11:40:46;0.67;;;0.53;;
317;SDS011;146;53.448;10.228;2023-03-14T11:43:24;0.60;;;0.60;;
317;SDS011;146;53.448;10.228;2023-03-14T11:46:05;0.60;;;0.57;;
317;SDS011;146;53.448;10.228;2023-03-14T11:48:40;0.73;;;0.50;;
317;SDS011;146;53.448;10.228;2023-03-14T11:51:13;1.70;;;0.60;;
317;SDS011;146;53.448;10.228;2023-03-14T11:53:52;0.47;;;0.47;;
317;SDS011;146;53.448;10.228;2023-03-14T11:56:29;1.63;;;0.90;;
317;SDS011;146;53.448;10.228;2023-03-14T11:59:02;1.53;;;0.67;;
317;SDS011;146;53.448;10.228;2023-03-14T12:01:39;5.40;;;0.73;;
317;SDS011;146;53.448;10.228;2023-03-14T12:04:16;1.80;;;1.20;;
317;SDS011;146;53.448;10.228;2023-03-14T12:06:51;2.03;;;0.90;;
317;SDS011;146;53.448;10.228;2023-03-14T12:09:24;5.20;;;0.80;;
317;SDS011;146;53.448;10.228;2023-03-14T12:11:52;1.00;;;0.80;;
317;SDS011;146;53.448;10.228;2023-03-14T12:14:25;2.57;;;1.00;;
317;SDS011;146;53.448;10.228;2023-03-14T12:16:55;1.73;;;1.10;;
317;SDS011;146;53.448;10.228;2023-03-14T12:22:27;2.70;;;0.80;;
317;SDS011;146;53.448;10.228;2023-03-14T12:25:02;3.40;;;1.63;;
317;SDS011;146;53.448;10.228;2023-03-14T12:27:46;2.63;;;1.10;;
317;SDS011;146;53.448;10.228;2023-03-14T12:30:30;1.43;;;0.90;;
317;SDS011;146;53.448;10.228;2023-03-14T12:35:57;2.53;;;1.13;;
317;SDS011;146;53.448;10.228;2023-03-14T12:38:30;3.07;;;1.33;;
317;SDS011;146;53.448;10.228;2023-03-14T12:41:14;1.27;;;1.17;;
317;SDS011;146;53.448;10.228;2023-03-14T12:43:44;3.30;;;1.60;;
317;SDS011;146;53.448;10.228;2023-03-14T12:46:27;4.00;;;1.00;;
317;SDS011;146;53.448;10.228;2023-03-14T12:49:03;5.37;;;2.00;;
317;SDS011;146;53.448;10.228;2023-03-14T12:51:38;2.10;;;1.20;;
317;SDS011;146;53.448;10.228;2023-03-14T12:54:21;2.10;;;1.20;;
317;SDS011;146;53.448;10.228;2023-03-14T12:57:06;2.90;;;0.93;;
317;SDS011;146;53.448;10.228;2023-03-14T12:59:47;2.03;;;1.00;;
317;SDS011;146;53.448;10.228;2023-03-14T13:04:46;3.43;;;1.00;;
317;SDS011;146;53.448;10.228;2023-03-14T13:07:31;3.50;;;1.30;;
317;SDS011;146;53.448;10.228;2023-03-14T13:12:55;1.87;;;1.17;;
317;SDS011;146;53.448;10.228;2023-03-14T13:15:43;4.90;;;1.40;;
317;SDS011;146;53.448;10.228;2023-03-14T13:18:12;1.23;;;1.13;;
317;SDS011;146;53.448;10.228;2023-03-14T13:20:48;5.87;;;1.63;;
317;SDS011;146;53.448;10.228;2023-03-14T13:23:32;2.40;;;1.53;;
317;SDS011;146;53.448;10.228;2023-03-14T13:26:00;8.97;;;2.10;;
317;SDS011;146;53.448;10.228;2023-03-14T13:28:30;2.37;;;1.50;;
317;SDS011;146;53.448;10.228;2023-03-14T13:31:18;4.00;;;1.60;;
317;SDS011;146;53.448;10.228;2023-03-14T13:33:56;5.90;;;1.53;;
317;SDS011;146;53.448;10.228;2023-03-14T13:36:34;5.07;;;1.60;;
317;SDS011;146;53.448;10.228;2023-03-14T13:39:02;3.17;;;2.03;;
317;SDS011;146;53.448;10.228;2023-03-14T13:41:37;8.40;;;2.20;;
317;SDS011;146;53.448;10.228;2023-03-14T13:44:08;4.70;;;1.97;;
317;SDS011;146;53.448;10.228;2023-03-14T13:47:05;10.10;;;2.20;;
317;SDS011;146;53.448;10.228;2023-03-14T13:49:37;12.67;;;2.83;;
317;SDS011;146;53.448;10.228;2023-03-14T13:52:22;7.10;;;2.00;;
317;SDS011;146;53.448;10.228;2023-03-14T13:54:52;6.87;;;2.07;;
317;SDS011;146;53.448;10.228;2023-03-14T13:57:22;3.53;;;1.63;;
317;SDS011;146;53.448;10.228;2023-03-14T14:00:01;2.70;;;1.67;;
317;SDS011;146;53.448;10.228;2023-03-14T14:02:38;1.07;;;0.90;;
317;SDS011;146;53.448;10.228;2023-03-14T14:05:11;6.43;;;1.23;;
317;SDS011;146;53.448;10.228;2023-03-14T14:07:45;3.40;;;1.27;;
317;SDS011;146;53.448;10.228;2023-03-14T14:10:13;3.97;;;1.33;;
317;SDS011;146;53.448;10.228;2023-03-14T14:12:44;6.10;;;1.37;;
317;SDS011;146;53.448;10.228;2023-03-14T14:15:19;2.90;;;1.30;;
317;SDS011;146;53.448;10.228;2023-03-14T14:18:01;6.80;;;1.40;;
317;SDS011;146;53.448;10.228;2023-03-14T14:20:30;6.47;;;1.73;;
317;SDS011;146;53.448;10.228;2023-03-14T14:23:16;3.57;;;1.43;;
317;SDS011;146;53.448;10.228;2023-03-14T14:25:50;3.40;;;1.87;;
317;SDS011;146;53.448;10.228;2023-03-14T14:28:17;3.47;;;1.43;;
317;SDS011;146;53.448;10.228;2023-03-14T14:31:17;2.87;;;1.43;;
317;SDS011;146;53.448;10.228;2023-03-14T14:33:59;4.90;;;1.10;;
317;SDS011;146;53.448;10.228;2023-03-14T14:36:32;6.50;;;1.90;;
317;SDS011;146;53.448;10.228;2023-03-14T14:39:09;4.53;;;1.50;;
317;SDS011;146;53.448;10.228;2023-03-14T14:41:46;2.87;;;1.57;;
317;SDS011;146;53.448;10.228;2023-03-14T14:44:16;5.10;;;2.23;;
317;SDS011;146;53.448;10.228;2023-03-14T14:46:44;5.43;;;1.20;;
317;SDS011;146;53.448;10.228;2023-03-14T14:49:17;2.53;;;1.20;;
317;SDS011;146;53.448;10.228;2023-03-14T14:51:49;4.23;;;1.40;;
317;SDS011;146;53.448;10.228;2023-03-14T14:54:19;2.47;;;1.17;;
317;SDS011;146;53.448;10.228;2023-03-14T14:57:01;2.50;;;1.30;;
317;SDS011;146;53.448;10.228;2023-03-14T14:59:29;2.60;;;1.13;;
317;SDS011;146;53.448;10.228;2023-03-14T15:01:56;1.90;;;1.00;;
317;SDS011;146;53.448;10.228;2023-03-14T15:04:29;4.03;;;1.27;;
317;SDS011;146;53.448;10.228;2023-03-14T15:06:56;6.10;;;1.60;;
317;SDS011;146;53.448;10.228;2023-03-14T15:09:25;7.20;;;1.70;;
317;SDS011;146;53.448;10.228;2023-03-14T15:11:52;4.33;;;1.33;;
317;SDS011;146;53.448;10.228;2023-03-14T15:14:26;4.53;;;1.17;;
317;SDS011;146;53.448;10.228;2023-03-14T15:16:59;3.03;;;1.33;;
317;SDS011;146;53.448;10.228;2023-03-14T15:19:29;1.53;;;0.93;;
317;SDS011;146;53.448;10.228;2023-03-14T15:21:58;3.57;;;1.40;;
317;SDS011;146;53.448;10.228;2023-03-14T15:24:29;4.20;;;1.60;;
317;SDS011;146;53.448;10.228;2023-03-14T15:27:05;4.90;;;1.60;;
317;SDS011;146;53.448;10.228;2023-03-14T15:29:43;3.53;;;1.17;;
317;SDS011;146;53.448;10.228;2023-03-14T15:32:18;4.60;;;1.40;;
317;SDS011;146;53.448;10.228;2023-03-14T15:34:50;1.80;;;1.23;;
317;SDS011;146;53.448;10.228;2023-03-14T15:37:25;3.87;;;1.90;;
317;SDS011;146;53.448;10.228;2023-03-14T15:39:53;3.07;;;1.67;;
317;SDS011;146;53.448;10.228;2023-03-14T15:42:22;4.57;;;1.60;;
317;SDS011;146;53.448;10.228;2023-03-14T15:44:49;3.80;;;1.20;;
317;SDS011;146;53.448;10.228;2023-03-14T15:47:16;6.73;;;1.80;;
317;SDS011;146;53.448;10.228;2023-03-14T15:49:46;7.20;;;2.30;;
317;SDS011;146;53.448;10.228;2023-03-14T15:52:12;4.13;;;1.33;;
317;SDS011;146;53.448;10.228;2023-03-14T15:54:45;7.13;;;2.23;;
317;SDS011;146;53.448;10.228;2023-03-14T15:57:19;6.00;;;1.33;;
317;SDS011;146;53.448;10.228;2023-03-14T15:59:49;6.33;;;2.03;;
317;SDS011;146;53.448;10.228;2023-03-14T16:02:16;2.70;;;1.20;;
317;SDS011;146;53.448;10.228;2023-03-14T16:04:43;4.20;;;1.60;;
317;SDS011;146;53.448;10.228;2023-03-14T16:07:15;7.13;;;2.00;;
317;SDS011;146;53.448;10.228;2023-03-14T16:09:45;6.10;;;1.10;;
317;SDS011;146;53.448;10.228;2023-03-14T16:12:12;6.40;;;1.60;;
317;SDS011;146;53.448;10.228;2023-03-14T16:14:40;4.47;;;1.60;;
317;SDS011;146;53.448;10.228;2023-03-14T16:17:07;3.47;;;1.07;;
317;SDS011;146;53.448;10.228;2023-03-14T16:19:38;3.40;;;1.43;;
317;SDS011;146;53.448;10.228;2023-03-14T16:22:14;4.13;;;1.43;;
317;SDS011;146;53.448;10.228;2023-03-14T16:24:41;4.20;;;1.10;;
317;SDS011;146;53.448;10.228;2023-03-14T16:27:31;3.87;;;1.40;;
317;SDS011;146;53.448;10.228;2023-03-14T16:29:59;1.50;;;1.30;;
317;SDS011;146;53.448;10.228;2023-03-14T16:32:26;5.73;;;1.47;;